VEGT/GAU METAR and TAF weather

Enter ICAO airport designator
Station Type Date Time Source
VEGT METAR 2021/04/17 01:30 UTC NOAA

VEGT 170130Z 00000KT 3000 -RA FEW010 SCT018 FEW025CB OVC090 19/16 Q1014 NOSIG


Station Type Date Time Source
VEGT Decoded METAR 2021/04/17 01:30 UTC NOAA

Gauhati, India (VEGT) 26-06N 091-35E 54M
Apr 16, 2021 - 09:30 PM EDT / 2021.04.17 0130 UTC
Wind: Calm:0
Visibility: 1 mile(s):0
Sky conditions: overcast
Weather: light rain; Cumulonimbus clouds observed
Temperature: 66 F (19 C)
Dew Point: 60 F (16 C)
Relative Humidity: 82%
Pressure (altimeter): 29.94 in. Hg (1014 hPa)
ob: VEGT 170130Z 00000KT 3000 -RA FEW010 SCT018 FEW025CB OVC090 19/16 Q1014 NOSIG
cycle: 1

Station Type Date Time Source
VEGT TAF 2020/12/17 12:52 UTC NOAA

TAF VEGT 171100Z 1712/1818 03005KT 2000 BR SCT018 BKN100
BECMG 1713/1715 00000KT 1500 BR
BECMG 1800/1802 0800 FG FEW008
BECMG 1803/1805 03004KT 2000 BR SCT018 BKN100
BECMG 1806/1808 34008KT 3000 HZ FEW020
BECMG 1813/1815 00000KT 2000 BR FEW018 SCT100

Example: see airport list